sim
Sign-in with your pilot id or email,
or register
Callsign
Passwort

Schedule Details

Flight Number: DLH2023
Departure: Dusseldorf International Airport (EDDL) at 05:25
Arrival: Munich Airport (EDDM) at 06:35
Route: Lufthansa Passenger Schedule. Enter filed route here before submitting Pirep.

Weather Information
Getting current METAR information for EDDL 231620Z 22012KT 9999 FEW052CB 23/10 Q1002 NOSIG
Getting current METAR information for EDDM 231620Z 27003KT 9999 FEW040 18/14 Q1009 NOSIG

Schedule Frequency

Route Map